sensor_id;sensor_type;location;lat;lon;timestamp;pressure;altitude;pressure_sealevel;temperature;humidity
17635;BME280;8936;49.010;12.120;2023-08-24T00:00:26;98110.22;;;29.52;62.92
17635;BME280;8936;49.010;12.120;2023-08-24T00:02:53;98114.50;;;29.45;63.29
17635;BME280;8936;49.010;12.120;2023-08-24T00:05:20;98113.66;;;29.41;63.15
17635;BME280;8936;49.010;12.120;2023-08-24T00:07:47;98113.56;;;29.31;64.35
17635;BME280;8936;49.010;12.120;2023-08-24T00:10:14;98115.94;;;29.29;64.08
17635;BME280;8936;49.010;12.120;2023-08-24T00:12:40;98106.44;;;29.23;64.76
17635;BME280;8936;49.010;12.120;2023-08-24T00:15:08;98103.09;;;29.47;63.63
17635;BME280;8936;49.010;12.120;2023-08-24T00:17:35;98098.31;;;29.40;63.78
17635;BME280;8936;49.010;12.120;2023-08-24T00:20:04;98105.78;;;29.36;64.26
17635;BME280;8936;49.010;12.120;2023-08-24T00:22:35;98105.38;;;29.38;64.46
17635;BME280;8936;49.010;12.120;2023-08-24T00:25:02;98104.81;;;29.18;65.50
17635;BME280;8936;49.010;12.120;2023-08-24T00:27:28;98109.72;;;28.58;68.17
17635;BME280;8936;49.010;12.120;2023-08-24T00:29:55;98102.47;;;28.10;72.65
17635;BME280;8936;49.010;12.120;2023-08-24T00:32:22;98111.91;;;27.86;76.07
17635;BME280;8936;49.010;12.120;2023-08-24T00:34:49;98103.03;;;27.66;79.17
17635;BME280;8936;49.010;12.120;2023-08-24T00:37:17;98108.06;;;27.91;80.11
17635;BME280;8936;49.010;12.120;2023-08-24T00:39:43;98106.69;;;28.04;78.88
17635;BME280;8936;49.010;12.120;2023-08-24T00:42:09;98114.50;;;28.02;77.48
17635;BME280;8936;49.010;12.120;2023-08-24T00:44:39;98107.38;;;28.27;77.35
17635;BME280;8936;49.010;12.120;2023-08-24T00:47:06;98106.88;;;28.51;74.69
17635;BME280;8936;49.010;12.120;2023-08-24T00:49:33;98109.47;;;28.70;74.38
17635;BME280;8936;49.010;12.120;2023-08-24T00:51:59;98110.63;;;28.69;72.70
17635;BME280;8936;49.010;12.120;2023-08-24T00:54:27;98100.59;;;28.87;71.40
17635;BME280;8936;49.010;12.120;2023-08-24T00:56:54;98099.13;;;28.97;71.34
17635;BME280;8936;49.010;12.120;2023-08-24T00:59:20;98100.16;;;28.82;71.66
17635;BME280;8936;49.010;12.120;2023-08-24T01:01:47;98090.34;;;28.84;71.89
17635;BME280;8936;49.010;12.120;2023-08-24T01:04:13;98094.81;;;28.96;71.12
17635;BME280;8936;49.010;12.120;2023-08-24T01:06:40;98088.13;;;28.97;70.46
17635;BME280;8936;49.010;12.120;2023-08-24T01:09:06;98089.81;;;29.12;69.87
17635;BME280;8936;49.010;12.120;2023-08-24T01:11:37;98092.94;;;29.07;70.03
17635;BME280;8936;49.010;12.120;2023-08-24T01:14:08;98094.41;;;28.98;69.89
17635;BME280;8936;49.010;12.120;2023-08-24T01:16:39;98097.13;;;28.57;71.72
17635;BME280;8936;49.010;12.120;2023-08-24T01:19:07;98098.63;;;28.51;72.57
17635;BME280;8936;49.010;12.120;2023-08-24T01:21:36;98102.81;;;28.71;72.37
17635;BME280;8936;49.010;12.120;2023-08-24T01:24:04;98096.19;;;28.42;72.16
17635;BME280;8936;49.010;12.120;2023-08-24T01:26:36;98086.97;;;27.98;75.93
17635;BME280;8936;49.010;12.120;2023-08-24T01:29:03;98093.50;;;27.86;78.21
17635;BME280;8936;49.010;12.120;2023-08-24T01:31:30;98092.50;;;28.28;76.31
17635;BME280;8936;49.010;12.120;2023-08-24T01:33:57;98087.78;;;28.62;73.21
17635;BME280;8936;49.010;12.120;2023-08-24T01:36:25;98094.19;;;28.73;71.90
17635;BME280;8936;49.010;12.120;2023-08-24T01:38:53;98097.38;;;28.78;71.24
17635;BME280;8936;49.010;12.120;2023-08-24T01:41:22;98084.84;;;28.81;70.90
17635;BME280;8936;49.010;12.120;2023-08-24T01:43:51;98086.44;;;28.85;70.88
17635;BME280;8936;49.010;12.120;2023-08-24T01:46:19;98084.09;;;28.84;70.80
17635;BME280;8936;49.010;12.120;2023-08-24T01:48:47;98076.97;;;28.79;70.92
17635;BME280;8936;49.010;12.120;2023-08-24T01:51:14;98069.88;;;28.78;71.04
17635;BME280;8936;49.010;12.120;2023-08-24T01:53:40;98073.00;;;28.40;72.48
17635;BME280;8936;49.010;12.120;2023-08-24T01:56:08;98072.81;;;28.22;74.84
17635;BME280;8936;49.010;12.120;2023-08-24T01:58:34;98076.06;;;28.02;76.54
17635;BME280;8936;49.010;12.120;2023-08-24T02:01:02;98071.59;;;28.20;76.51
17635;BME280;8936;49.010;12.120;2023-08-24T02:03:28;98060.75;;;28.30;76.08
17635;BME280;8936;49.010;12.120;2023-08-24T02:05:55;98065.78;;;28.25;75.27
17635;BME280;8936;49.010;12.120;2023-08-24T02:08:21;98063.25;;;27.83;78.85
17635;BME280;8936;49.010;12.120;2023-08-24T02:10:47;98058.44;;;27.73;80.59
17635;BME280;8936;49.010;12.120;2023-08-24T02:13:14;98061.28;;;28.10;78.86
17635;BME280;8936;49.010;12.120;2023-08-24T02:15:40;98062.19;;;28.21;77.11
17635;BME280;8936;49.010;12.120;2023-08-24T02:18:08;98053.78;;;28.40;75.42
17635;BME280;8936;49.010;12.120;2023-08-24T02:20:35;98064.81;;;28.44;75.18
17635;BME280;8936;49.010;12.120;2023-08-24T02:23:01;98060.13;;;28.48;74.83
17635;BME280;8936;49.010;12.120;2023-08-24T02:25:27;98067.22;;;28.49;75.16
17635;BME280;8936;49.010;12.120;2023-08-24T02:27:54;98071.50;;;28.46;75.42
17635;BME280;8936;49.010;12.120;2023-08-24T02:30:20;98074.06;;;27.69;79.99
17635;BME280;8936;49.010;12.120;2023-08-24T02:32:47;98059.44;;;27.35;83.50
17635;BME280;8936;49.010;12.120;2023-08-24T02:35:14;98063.00;;;27.39;83.15
17635;BME280;8936;49.010;12.120;2023-08-24T02:37:41;98057.47;;;27.88;80.75
17635;BME280;8936;49.010;12.120;2023-08-24T02:40:07;98059.13;;;27.66;80.32
17635;BME280;8936;49.010;12.120;2023-08-24T02:42:34;98067.66;;;27.87;80.17
17635;BME280;8936;49.010;12.120;2023-08-24T02:45:00;98057.31;;;27.48;80.20
17635;BME280;8936;49.010;12.120;2023-08-24T02:47:27;98053.56;;;27.10;83.37
17635;BME280;8936;49.010;12.120;2023-08-24T02:49:54;98055.13;;;27.11;85.59
17635;BME280;8936;49.010;12.120;2023-08-24T02:52:21;98048.69;;;27.23;84.41
17635;BME280;8936;49.010;12.120;2023-08-24T02:54:48;98049.63;;;26.85;84.85
17635;BME280;8936;49.010;12.120;2023-08-24T02:57:14;98056.91;;;27.49;81.90
17635;BME280;8936;49.010;12.120;2023-08-24T02:59:40;98050.28;;;27.80;78.89
17635;BME280;8936;49.010;12.120;2023-08-24T03:02:08;98052.53;;;28.01;76.85
17635;BME280;8936;49.010;12.120;2023-08-24T03:04:35;98051.25;;;27.95;76.58
17635;BME280;8936;49.010;12.120;2023-08-24T03:07:01;98051.78;;;28.04;75.63
17635;BME280;8936;49.010;12.120;2023-08-24T03:09:29;98053.38;;;28.05;75.50
17635;BME280;8936;49.010;12.120;2023-08-24T03:11:55;98064.41;;;28.08;75.12
17635;BME280;8936;49.010;12.120;2023-08-24T03:14:22;98063.53;;;28.04;74.99
17635;BME280;8936;49.010;12.120;2023-08-24T03:16:48;98061.53;;;28.01;75.07
17635;BME280;8936;49.010;12.120;2023-08-24T03:19:15;98070.06;;;27.93;75.01
17635;BME280;8936;49.010;12.120;2023-08-24T03:21:43;98065.41;;;27.97;74.41
17635;BME280;8936;49.010;12.120;2023-08-24T03:24:09;98062.22;;;27.91;74.56
17635;BME280;8936;49.010;12.120;2023-08-24T03:26:39;98057.91;;;27.94;74.22
17635;BME280;8936;49.010;12.120;2023-08-24T03:29:05;98059.41;;;27.87;73.94
17635;BME280;8936;49.010;12.120;2023-08-24T03:31:34;98057.03;;;27.86;74.12
17635;BME280;8936;49.010;12.120;2023-08-24T03:34:12;98058.47;;;27.76;74.74
17635;BME280;8936;49.010;12.120;2023-08-24T03:36:39;98062.84;;;27.51;75.58
17635;BME280;8936;49.010;12.120;2023-08-24T03:39:05;98059.84;;;27.37;77.18
17635;BME280;8936;49.010;12.120;2023-08-24T03:41:32;98054.72;;;26.87;79.06
17635;BME280;8936;49.010;12.120;2023-08-24T03:44:00;98052.81;;;26.68;82.19
17635;BME280;8936;49.010;12.120;2023-08-24T03:46:26;98057.00;;;26.39;86.23
17635;BME280;8936;49.010;12.120;2023-08-24T03:48:53;98058.84;;;26.54;86.16
17635;BME280;8936;49.010;12.120;2023-08-24T03:51:19;98061.00;;;27.10;81.90
17635;BME280;8936;49.010;12.120;2023-08-24T03:53:46;98062.06;;;27.28;79.63
17635;BME280;8936;49.010;12.120;2023-08-24T03:56:12;98061.31;;;27.31;78.35
17635;BME280;8936;49.010;12.120;2023-08-24T03:58:39;98063.75;;;27.36;78.05
17635;BME280;8936;49.010;12.120;2023-08-24T04:01:09;98067.66;;;27.35;77.81
17635;BME280;8936;49.010;12.120;2023-08-24T04:03:35;98071.31;;;27.43;77.38
17635;BME280;8936;49.010;12.120;2023-08-24T04:06:02;98074.13;;;27.46;76.38
17635;BME280;8936;49.010;12.120;2023-08-24T04:08:28;98077.72;;;27.50;76.20
17635;BME280;8936;49.010;12.120;2023-08-24T04:10:55;98070.88;;;27.41;75.85
17635;BME280;8936;49.010;12.120;2023-08-24T04:13:21;98072.38;;;27.12;76.90
17635;BME280;8936;49.010;12.120;2023-08-24T04:15:47;98077.56;;;27.17;78.12
17635;BME280;8936;49.010;12.120;2023-08-24T04:18:15;98073.84;;;27.06;79.41
17635;BME280;8936;49.010;12.120;2023-08-24T04:20:41;98087.69;;;27.13;78.99
17635;BME280;8936;49.010;12.120;2023-08-24T04:23:08;98082.72;;;26.76;79.99
17635;BME280;8936;49.010;12.120;2023-08-24T04:25:35;98078.56;;;26.63;82.46
17635;BME280;8936;49.010;12.120;2023-08-24T04:28:05;98080.56;;;26.86;80.77
17635;BME280;8936;49.010;12.120;2023-08-24T04:30:31;98088.41;;;26.45;83.78
17635;BME280;8936;49.010;12.120;2023-08-24T04:32:58;98079.25;;;26.18;85.69
17635;BME280;8936;49.010;12.120;2023-08-24T04:35:26;98080.47;;;26.40;85.56
17635;BME280;8936;49.010;12.120;2023-08-24T04:37:53;98078.44;;;26.56;83.47
17635;BME280;8936;49.010;12.120;2023-08-24T04:40:20;98079.09;;;26.92;81.58
17635;BME280;8936;49.010;12.120;2023-08-24T04:42:49;98082.50;;;27.08;80.14
17635;BME280;8936;49.010;12.120;2023-08-24T04:45:16;98083.00;;;27.13;78.87
17635;BME280;8936;49.010;12.120;2023-08-24T04:47:42;98084.28;;;26.97;79.36
17635;BME280;8936;49.010;12.120;2023-08-24T04:50:12;98073.56;;;26.88;80.41
17635;BME280;8936;49.010;12.120;2023-08-24T04:52:39;98081.94;;;26.76;81.68
17635;BME280;8936;49.010;12.120;2023-08-24T04:55:06;98077.19;;;26.73;81.81
17635;BME280;8936;49.010;12.120;2023-08-24T04:57:33;98078.38;;;26.95;80.03
17635;BME280;8936;49.010;12.120;2023-08-24T05:00:00;98072.59;;;26.58;82.33
17635;BME280;8936;49.010;12.120;2023-08-24T05:02:26;98072.97;;;26.79;81.39
17635;BME280;8936;49.010;12.120;2023-08-24T05:04:52;98068.31;;;27.02;79.34
17635;BME280;8936;49.010;12.120;2023-08-24T05:07:19;98072.31;;;27.08;78.83
17635;BME280;8936;49.010;12.120;2023-08-24T05:09:46;98068.00;;;26.85;79.93
17635;BME280;8936;49.010;12.120;2023-08-24T05:12:13;98057.53;;;26.67;81.02
17635;BME280;8936;49.010;12.120;2023-08-24T05:14:39;98064.91;;;26.44;84.18
17635;BME280;8936;49.010;12.120;2023-08-24T05:17:06;98063.75;;;26.68;82.43
17635;BME280;8936;49.010;12.120;2023-08-24T05:19:33;98064.31;;;26.77;82.12
17635;BME280;8936;49.010;12.120;2023-08-24T05:21:59;98063.00;;;26.67;82.42
17635;BME280;8936;49.010;12.120;2023-08-24T05:24:26;98067.03;;;26.73;82.62
17635;BME280;8936;49.010;12.120;2023-08-24T05:26:53;98063.25;;;26.81;82.38
17635;BME280;8936;49.010;12.120;2023-08-24T05:29:20;98067.78;;;26.74;83.03
17635;BME280;8936;49.010;12.120;2023-08-24T05:31:46;98065.28;;;26.85;82.30
17635;BME280;8936;49.010;12.120;2023-08-24T05:34:12;98065.41;;;26.92;81.68
17635;BME280;8936;49.010;12.120;2023-08-24T05:36:39;98065.94;;;27.01;80.84
17635;BME280;8936;49.010;12.120;2023-08-24T05:39:05;98069.09;;;27.03;80.80
17635;BME280;8936;49.010;12.120;2023-08-24T05:41:31;98062.81;;;27.02;80.40
17635;BME280;8936;49.010;12.120;2023-08-24T05:43:59;98063.41;;;26.89;80.70
17635;BME280;8936;49.010;12.120;2023-08-24T05:46:26;98063.72;;;26.64;82.82
17635;BME280;8936;49.010;12.120;2023-08-24T05:48:52;98065.78;;;26.10;87.25
17635;BME280;8936;49.010;12.120;2023-08-24T05:51:18;98057.84;;;26.43;85.82
17635;BME280;8936;49.010;12.120;2023-08-24T05:53:45;98062.94;;;26.64;83.87
17635;BME280;8936;49.010;12.120;2023-08-24T05:56:11;98068.66;;;26.78;83.22
17635;BME280;8936;49.010;12.120;2023-08-24T05:58:37;98079.69;;;26.40;85.10
17635;BME280;8936;49.010;12.120;2023-08-24T06:01:05;98084.09;;;26.25;87.07
17635;BME280;8936;49.010;12.120;2023-08-24T06:03:31;98085.47;;;26.76;84.52
17635;BME280;8936;49.010;12.120;2023-08-24T06:06:01;98086.78;;;26.63;84.48
17635;BME280;8936;49.010;12.120;2023-08-24T06:08:28;98082.94;;;26.87;83.29
17635;BME280;8936;49.010;12.120;2023-08-24T06:10:55;98079.84;;;26.89;83.74
17635;BME280;8936;49.010;12.120;2023-08-24T06:13:21;98070.63;;;27.00;82.42
17635;BME280;8936;49.010;12.120;2023-08-24T06:15:48;98074.25;;;26.20;87.87
17635;BME280;8936;49.010;12.120;2023-08-24T06:18:15;98080.28;;;26.29;87.27
17635;BME280;8936;49.010;12.120;2023-08-24T06:20:42;98082.91;;;26.64;85.33
17635;BME280;8936;49.010;12.120;2023-08-24T06:23:08;98078.03;;;27.22;81.85
17635;BME280;8936;49.010;12.120;2023-08-24T06:25:53;98083.19;;;27.50;80.43
17635;BME280;8936;49.010;12.120;2023-08-24T06:28:19;98084.19;;;27.65;77.67
17635;BME280;8936;49.010;12.120;2023-08-24T06:30:46;98087.66;;;27.88;76.77
17635;BME280;8936;49.010;12.120;2023-08-24T06:33:13;98080.06;;;28.08;75.16
17635;BME280;8936;49.010;12.120;2023-08-24T06:35:40;98086.56;;;28.22;74.36
17635;BME280;8936;49.010;12.120;2023-08-24T06:38:07;98089.50;;;28.40;73.34
17635;BME280;8936;49.010;12.120;2023-08-24T06:40:33;98078.06;;;28.38;72.62
17635;BME280;8936;49.010;12.120;2023-08-24T06:42:59;98082.41;;;28.06;72.70
17635;BME280;8936;49.010;12.120;2023-08-24T06:45:26;98079.91;;;27.67;76.86
17635;BME280;8936;49.010;12.120;2023-08-24T06:47:52;98092.25;;;27.80;77.08
17635;BME280;8936;49.010;12.120;2023-08-24T06:50:19;98087.50;;;28.37;74.29
17635;BME280;8936;49.010;12.120;2023-08-24T06:52:49;98078.88;;;28.75;72.03
17635;BME280;8936;49.010;12.120;2023-08-24T06:55:16;98081.19;;;28.70;70.85
17635;BME280;8936;49.010;12.120;2023-08-24T06:57:47;98093.72;;;28.01;74.17
17635;BME280;8936;49.010;12.120;2023-08-24T07:00:14;98093.25;;;28.25;74.38
17635;BME280;8936;49.010;12.120;2023-08-24T07:02:40;98094.63;;;28.75;71.54
17635;BME280;8936;49.010;12.120;2023-08-24T07:05:06;98084.44;;;28.46;70.32
17635;BME280;8936;49.010;12.120;2023-08-24T07:07:33;98092.34;;;27.87;72.71
17635;BME280;8936;49.010;12.120;2023-08-24T07:10:01;98078.34;;;27.96;74.83
17635;BME280;8936;49.010;12.120;2023-08-24T07:12:28;98075.16;;;28.57;72.79
17635;BME280;8936;49.010;12.120;2023-08-24T07:14:54;98070.47;;;28.98;69.56
17635;BME280;8936;49.010;12.120;2023-08-24T07:17:21;98063.53;;;29.15;68.30
17635;BME280;8936;49.010;12.120;2023-08-24T07:19:47;98056.84;;;29.16;67.90
17635;BME280;8936;49.010;12.120;2023-08-24T07:22:13;98065.50;;;29.14;67.21
17635;BME280;8936;49.010;12.120;2023-08-24T07:24:40;98057.69;;;29.23;66.71
17635;BME280;8936;49.010;12.120;2023-08-24T07:27:08;98056.34;;;28.59;67.35
17635;BME280;8936;49.010;12.120;2023-08-24T07:29:34;98049.88;;;28.81;68.04
17635;BME280;8936;49.010;12.120;2023-08-24T07:32:01;98040.06;;;28.80;68.12
17635;BME280;8936;49.010;12.120;2023-08-24T07:34:28;98050.47;;;28.24;68.65
17635;BME280;8936;49.010;12.120;2023-08-24T07:36:54;98030.53;;;27.97;71.90
17635;BME280;8936;49.010;12.120;2023-08-24T07:39:21;98019.31;;;27.50;72.66
17635;BME280;8936;49.010;12.120;2023-08-24T07:41:47;98020.59;;;27.33;78.11
17635;BME280;8936;49.010;12.120;2023-08-24T07:44:15;98011.78;;;27.43;76.89
17635;BME280;8936;49.010;12.120;2023-08-24T07:46:41;98009.59;;;27.03;80.28
17635;BME280;8936;49.010;12.120;2023-08-24T07:49:08;97992.41;;;27.06;83.22
17635;BME280;8936;49.010;12.120;2023-08-24T07:51:34;97985.50;;;27.16;81.77
17635;BME280;8936;49.010;12.120;2023-08-24T07:54:00;97983.47;;;27.65;79.99
17635;BME280;8936;49.010;12.120;2023-08-24T07:56:27;97989.59;;;27.85;77.93
17635;BME280;8936;49.010;12.120;2023-08-24T07:58:53;97982.63;;;28.28;74.98
17635;BME280;8936;49.010;12.120;2023-08-24T08:01:21;97977.72;;;28.48;73.89
17635;BME280;8936;49.010;12.120;2023-08-24T08:03:47;97980.66;;;28.25;74.63
17635;BME280;8936;49.010;12.120;2023-08-24T08:06:14;97985.69;;;28.19;75.41
17635;BME280;8936;49.010;12.120;2023-08-24T08:08:40;97991.75;;;27.69;75.52
17635;BME280;8936;49.010;12.120;2023-08-24T08:11:06;98003.50;;;27.13;79.97
17635;BME280;8936;49.010;12.120;2023-08-24T08:13:33;98012.84;;;26.86;83.30
17635;BME280;8936;49.010;12.120;2023-08-24T08:16:02;98011.84;;;26.29;88.50
17635;BME280;8936;49.010;12.120;2023-08-24T08:18:31;98005.78;;;26.01;91.12
17635;BME280;8936;49.010;12.120;2023-08-24T08:20:57;98006.06;;;26.15;90.98
17635;BME280;8936;49.010;12.120;2023-08-24T08:23:24;98005.34;;;26.60;88.01
17635;BME280;8936;49.010;12.120;2023-08-24T08:25:50;98014.28;;;26.57;86.63
17635;BME280;8936;49.010;12.120;2023-08-24T08:28:17;98018.50;;;26.51;84.51
17635;BME280;8936;49.010;12.120;2023-08-24T08:30:43;98021.91;;;26.90;84.43
17635;BME280;8936;49.010;12.120;2023-08-24T08:33:10;98020.63;;;27.07;83.42
17635;BME280;8936;49.010;12.120;2023-08-24T08:35:38;98026.78;;;27.00;84.40
17635;BME280;8936;49.010;12.120;2023-08-24T08:38:05;98024.75;;;26.74;86.20
17635;BME280;8936;49.010;12.120;2023-08-24T08:40:32;98038.72;;;26.89;84.66
17635;BME280;8936;49.010;12.120;2023-08-24T08:43:02;98042.19;;;26.86;85.43
17635;BME280;8936;49.010;12.120;2023-08-24T08:45:28;98050.22;;;26.98;82.83
17635;BME280;8936;49.010;12.120;2023-08-24T08:47:56;98042.06;;;27.50;80.55
17635;BME280;8936;49.010;12.120;2023-08-24T08:50:23;98054.88;;;28.02;76.87
17635;BME280;8936;49.010;12.120;2023-08-24T08:52:52;98043.84;;;27.99;77.12
17635;BME280;8936;49.010;12.120;2023-08-24T08:55:18;98036.31;;;28.22;75.83
17635;BME280;8936;49.010;12.120;2023-08-24T08:57:45;98042.34;;;27.45;79.89
17635;BME280;8936;49.010;12.120;2023-08-24T09:00:12;98034.13;;;27.19;83.98
17635;BME280;8936;49.010;12.120;2023-08-24T09:02:42;98028.81;;;27.29;80.78
17635;BME280;8936;49.010;12.120;2023-08-24T09:05:08;98027.22;;;27.28;82.77
17635;BME280;8936;49.010;12.120;2023-08-24T09:07:35;98016.78;;;27.67;80.59
17635;BME280;8936;49.010;12.120;2023-08-24T09:10:06;98025.25;;;27.55;80.68
17635;BME280;8936;49.010;12.120;2023-08-24T09:12:33;98028.31;;;27.24;83.12
17635;BME280;8936;49.010;12.120;2023-08-24T09:15:02;98026.59;;;27.98;80.48
17635;BME280;8936;49.010;12.120;2023-08-24T09:17:29;98019.09;;;28.25;75.35
17635;BME280;8936;49.010;12.120;2023-08-24T09:19:57;98016.09;;;28.37;75.00
17635;BME280;8936;49.010;12.120;2023-08-24T09:22:24;98023.94;;;28.38;74.66
17635;BME280;8936;49.010;12.120;2023-08-24T09:24:51;98012.00;;;29.05;72.04
17635;BME280;8936;49.010;12.120;2023-08-24T09:27:24;98005.41;;;28.65;69.93
17635;BME280;8936;49.010;12.120;2023-08-24T09:29:51;98014.75;;;28.24;71.77
17635;BME280;8936;49.010;12.120;2023-08-24T09:32:21;98017.25;;;28.76;71.58
17635;BME280;8936;49.010;12.120;2023-08-24T09:35:02;98020.31;;;29.19;69.77
17635;BME280;8936;49.010;12.120;2023-08-24T09:37:31;98020.88;;;29.35;66.51
17635;BME280;8936;49.010;12.120;2023-08-24T09:40:02;97999.31;;;29.48;66.73
17635;BME280;8936;49.010;12.120;2023-08-24T09:42:38;97987.81;;;29.28;63.26
17635;BME280;8936;49.010;12.120;2023-08-24T09:45:06;97989.00;;;29.34;64.57
17635;BME280;8936;49.010;12.120;2023-08-24T09:47:35;97976.94;;;29.56;63.52
17635;BME280;8936;49.010;12.120;2023-08-24T09:50:01;97965.34;;;29.22;64.57
17635;BME280;8936;49.010;12.120;2023-08-24T09:52:29;97954.00;;;29.24;63.96
17635;BME280;8936;49.010;12.120;2023-08-24T09:54:57;97953.06;;;29.09;61.43
17635;BME280;8936;49.010;12.120;2023-08-24T09:57:25;97939.94;;;28.78;61.64
17635;BME280;8936;49.010;12.120;2023-08-24T09:59:53;97943.50;;;28.85;62.96
17635;BME280;8936;49.010;12.120;2023-08-24T10:02:20;97936.03;;;28.82;61.71
17635;BME280;8936;49.010;12.120;2023-08-24T10:04:49;97942.41;;;28.93;60.72
17635;BME280;8936;49.010;12.120;2023-08-24T10:07:18;97929.38;;;28.87;62.16
17635;BME280;8936;49.010;12.120;2023-08-24T10:09:47;97926.34;;;29.03;62.61
17635;BME280;8936;49.010;12.120;2023-08-24T10:12:15;97926.97;;;28.82;62.22
17635;BME280;8936;49.010;12.120;2023-08-24T10:14:47;97930.16;;;28.87;63.53
17635;BME280;8936;49.010;12.120;2023-08-24T10:17:18;97922.63;;;29.39;62.56
17635;BME280;8936;49.010;12.120;2023-08-24T10:19:44;97906.94;;;29.43;61.67
17635;BME280;8936;49.010;12.120;2023-08-24T10:22:12;97914.06;;;29.58;62.20
17635;BME280;8936;49.010;12.120;2023-08-24T10:24:39;97909.00;;;29.78;60.73
17635;BME280;8936;49.010;12.120;2023-08-24T10:27:07;97902.66;;;29.49;58.28
17635;BME280;8936;49.010;12.120;2023-08-24T10:29:35;97906.13;;;29.39;58.12
17635;BME280;8936;49.010;12.120;2023-08-24T10:32:01;97893.97;;;29.47;59.41
17635;BME280;8936;49.010;12.120;2023-08-24T10:34:30;97891.63;;;29.53;58.38
17635;BME280;8936;49.010;12.120;2023-08-24T10:36:56;97897.56;;;29.65;59.54
17635;BME280;8936;49.010;12.120;2023-08-24T10:39:26;97886.50;;;29.48;58.15
17635;BME280;8936;49.010;12.120;2023-08-24T10:41:53;97884.50;;;29.37;59.28
17635;BME280;8936;49.010;12.120;2023-08-24T10:44:24;97888.88;;;29.49;58.75
17635;BME280;8936;49.010;12.120;2023-08-24T10:47:06;97880.59;;;29.42;59.30
17635;BME280;8936;49.010;12.120;2023-08-24T10:49:34;97873.13;;;29.42;59.76
17635;BME280;8936;49.010;12.120;2023-08-24T10:54:42;97866.59;;;29.86;60.25
17635;BME280;8936;49.010;12.120;2023-08-24T10:57:10;97870.53;;;29.85;59.21
17635;BME280;8936;49.010;12.120;2023-08-24T10:59:43;97880.69;;;29.70;59.04
17635;BME280;8936;49.010;12.120;2023-08-24T11:02:10;97879.50;;;29.64;57.40
17635;BME280;8936;49.010;12.120;2023-08-24T11:04:57;97864.56;;;29.69;57.96
17635;BME280;8936;49.010;12.120;2023-08-24T11:07:29;97864.56;;;29.76;57.33
17635;BME280;8936;49.010;12.120;2023-08-24T11:09:55;97862.97;;;29.71;56.88
17635;BME280;8936;49.010;12.120;2023-08-24T11:12:22;97860.63;;;29.70;56.61
17635;BME280;8936;49.010;12.120;2023-08-24T11:14:52;97854.41;;;30.12;57.89
17635;BME280;8936;49.010;12.120;2023-08-24T11:17:20;97844.56;;;29.93;56.65
17635;BME280;8936;49.010;12.120;2023-08-24T11:19:47;97840.25;;;29.95;57.13
17635;BME280;8936;49.010;12.120;2023-08-24T11:22:16;97831.59;;;30.01;56.58
17635;BME280;8936;49.010;12.120;2023-08-24T11:24:42;97837.47;;;29.99;56.90
17635;BME280;8936;49.010;12.120;2023-08-24T11:27:09;97823.75;;;30.20;56.88
17635;BME280;8936;49.010;12.120;2023-08-24T11:29:35;97821.38;;;30.47;55.80
17635;BME280;8936;49.010;12.120;2023-08-24T11:32:02;97815.47;;;30.31;55.98
17635;BME280;8936;49.010;12.120;2023-08-24T11:34:29;97815.47;;;30.48;56.39
17635;BME280;8936;49.010;12.120;2023-08-24T11:36:59;97814.28;;;30.57;56.58
17635;BME280;8936;49.010;12.120;2023-08-24T11:39:37;97813.50;;;30.45;55.33
17635;BME280;8936;49.010;12.120;2023-08-24T11:42:04;97822.56;;;30.35;55.38
17635;BME280;8936;49.010;12.120;2023-08-24T11:44:44;97802.09;;;30.33;55.42
17635;BME280;8936;49.010;12.120;2023-08-24T11:47:10;97796.97;;;30.21;55.69
17635;BME280;8936;49.010;12.120;2023-08-24T11:49:37;97788.31;;;30.33;56.11
17635;BME280;8936;49.010;12.120;2023-08-24T11:52:03;97779.25;;;30.25;55.74
17635;BME280;8936;49.010;12.120;2023-08-24T11:54:31;97789.88;;;30.34;55.88
17635;BME280;8936;49.010;12.120;2023-08-24T11:57:06;97798.53;;;30.36;55.45
17635;BME280;8936;49.010;12.120;2023-08-24T11:59:34;97790.28;;;30.46;55.77
17635;BME280;8936;49.010;12.120;2023-08-24T12:02:15;97786.66;;;30.74;55.74
17635;BME280;8936;49.010;12.120;2023-08-24T12:04:43;97791.00;;;30.75;53.81
17635;BME280;8936;49.010;12.120;2023-08-24T12:07:09;97794.63;;;30.51;52.41
17635;BME280;8936;49.010;12.120;2023-08-24T12:09:39;97795.00;;;30.46;54.40
17635;BME280;8936;49.010;12.120;2023-08-24T12:12:11;97791.03;;;30.61;54.13
17635;BME280;8936;49.010;12.120;2023-08-24T12:14:41;97800.09;;;30.65;54.61
17635;BME280;8936;49.010;12.120;2023-08-24T12:17:25;97789.81;;;30.76;55.34
17635;BME280;8936;49.010;12.120;2023-08-24T12:19:57;97781.13;;;30.88;55.61
17635;BME280;8936;49.010;12.120;2023-08-24T12:22:23;97780.31;;;30.91;55.01
17635;BME280;8936;49.010;12.120;2023-08-24T12:24:50;97774.81;;;30.91;54.87
17635;BME280;8936;49.010;12.120;2023-08-24T12:27:21;97778.69;;;31.04;53.25
17635;BME280;8936;49.010;12.120;2023-08-24T12:29:48;97772.00;;;31.06;53.55
17635;BME280;8936;49.010;12.120;2023-08-24T12:32:15;97767.25;;;31.13;52.64
17635;BME280;8936;49.010;12.120;2023-08-24T12:34:44;97762.94;;;31.01;53.00
17635;BME280;8936;49.010;12.120;2023-08-24T12:37:11;97766.13;;;31.03;52.54
17635;BME280;8936;49.010;12.120;2023-08-24T12:39:38;97768.47;;;31.01;53.01
17635;BME280;8936;49.010;12.120;2023-08-24T12:42:06;97772.38;;;31.11;52.58
17635;BME280;8936;49.010;12.120;2023-08-24T12:44:34;97765.69;;;31.05;53.10
17635;BME280;8936;49.010;12.120;2023-08-24T12:47:01;97756.63;;;31.08;53.31
17635;BME280;8936;49.010;12.120;2023-08-24T12:49:42;97742.38;;;31.20;51.99
17635;BME280;8936;49.010;12.120;2023-08-24T12:52:10;97747.19;;;31.06;53.07
17635;BME280;8936;49.010;12.120;2023-08-24T12:54:42;97744.41;;;31.09;51.51
17635;BME280;8936;49.010;12.120;2023-08-24T12:57:10;97736.16;;;30.98;51.32
17635;BME280;8936;49.010;12.120;2023-08-24T12:59:57;97737.38;;;30.94;51.97
17635;BME280;8936;49.010;12.120;2023-08-24T13:02:24;97733.44;;;30.95;52.49
17635;BME280;8936;49.010;12.120;2023-08-24T13:04:50;97715.69;;;30.99;52.41